createdAt,value
2022-11-20T00:04:34.212Z,72.36
2022-11-20T00:09:37.418Z,69.69
2022-11-20T00:14:42.519Z,69.78
2022-11-20T00:19:45.539Z,69.27
2022-11-20T00:24:49.679Z,69.09
2022-11-20T00:29:53.257Z,68.67
2022-11-20T00:34:57.240Z,68.69
2022-11-20T00:40:00.705Z,67.38
2022-11-20T00:45:04.225Z,68.01
2022-11-20T00:50:08.112Z,66.92
2022-11-20T00:55:11.573Z,66.60
2022-11-20T01:00:15.198Z,66.35
2022-11-20T01:05:18.175Z,66.42
2022-11-20T01:10:21.689Z,65.65
2022-11-20T01:15:24.742Z,63.62
2022-11-20T01:20:27.730Z,62.62
2022-11-20T01:25:31.724Z,59.28
2022-11-20T01:30:34.918Z,60.24
2022-11-20T01:35:38.792Z,61.55
2022-11-20T01:40:41.803Z,62.15
2022-11-20T01:46:08.473Z,62.57
2022-11-20T01:51:38.140Z,64.46
2022-11-20T01:56:44.817Z,65.17
2022-11-20T02:01:48.560Z,65.34
2022-11-20T02:06:55.987Z,66.29
2022-11-20T02:12:00.689Z,67.00
2022-11-20T02:17:04.372Z,67.60
2022-11-20T02:22:16.050Z,67.58
2022-11-20T02:27:19.545Z,68.77
2022-11-20T02:32:28.420Z,69.72
2022-11-20T02:37:35.916Z,70.57
2022-11-20T02:42:39.216Z,71.27
2022-11-20T02:47:42.175Z,71.22
2022-11-20T02:52:45.390Z,71.98
2022-11-20T02:57:48.468Z,72.39
2022-11-20T03:02:51.577Z,71.14
2022-11-20T03:07:55.075Z,72.39
2022-11-20T03:12:58.398Z,72.76
2022-11-20T03:18:01.508Z,73.61
2022-11-20T03:23:04.437Z,75.89
2022-11-20T03:28:08.902Z,77.82
2022-11-20T03:33:12.238Z,79.51
2022-11-20T03:38:15.161Z,80.93
2022-11-20T03:43:18.668Z,81.67
2022-11-20T03:48:22.135Z,83.55
2022-11-20T03:53:25.083Z,84.47
2022-11-20T03:58:28.115Z,86.02
2022-11-20T04:03:31.993Z,89.09
2022-11-20T04:08:35.213Z,89.94
2022-11-20T04:13:38.954Z,90.21
2022-11-20T04:18:41.933Z,91.64
2022-11-20T04:23:44.915Z,91.81
2022-11-20T04:28:48.398Z,93.18
2022-11-20T04:33:51.911Z,93.72
2022-11-20T04:38:57.608Z,94.00
2022-11-20T04:44:05.541Z,94.85
2022-11-20T04:49:08.979Z,95.36
2022-11-20T04:54:13.022Z,96.03
2022-11-20T04:59:16.011Z,95.95
2022-11-20T05:04:19.629Z,95.82
2022-11-20T05:09:22.904Z,95.67
2022-11-20T05:14:26.113Z,95.08
2022-11-20T05:19:29.441Z,94.76
2022-11-20T05:24:32.852Z,93.85
2022-11-20T05:29:35.868Z,93.64
2022-11-20T05:34:39.133Z,93.48
2022-11-20T05:39:42.074Z,93.56
2022-11-20T05:44:45.527Z,92.92
2022-11-20T05:49:48.495Z,91.92
2022-11-20T05:54:51.912Z,89.46
2022-11-20T05:59:55.437Z,86.39
2022-11-20T06:04:58.657Z,82.47
2022-11-20T06:10:02.029Z,80.72
2022-11-20T06:15:07.432Z,80.67
2022-11-20T06:20:11.124Z,79.27
2022-11-20T06:25:16.908Z,78.47
2022-11-20T06:30:19.971Z,77.18
2022-11-20T06:35:23.565Z,76.36
2022-11-20T06:40:27.680Z,75.38
2022-11-20T06:45:31.710Z,73.81
2022-11-20T06:50:53.466Z,73.11
2022-11-20T06:56:00.438Z,72.35
2022-11-20T07:01:09.090Z,72.34
2022-11-20T07:06:12.320Z,71.93
2022-11-20T07:11:16.091Z,72.46
2022-11-20T07:16:19.626Z,72.14
2022-11-20T07:21:24.744Z,73.42
2022-11-20T07:26:28.121Z,74.55
2022-11-20T07:31:31.239Z,74.71
2022-11-20T07:36:34.514Z,75.09
2022-11-20T07:41:38.652Z,76.53
2022-11-20T07:46:41.770Z,81.05
2022-11-20T07:51:47.905Z,83.05
2022-11-20T07:56:53.430Z,86.13
2022-11-20T08:01:56.743Z,88.34
2022-11-20T08:07:00.743Z,85.69
2022-11-20T08:18:02.021Z,88.94
2022-11-20T08:23:08.987Z,93.21
2022-11-20T08:28:20.274Z,95.47
2022-11-20T08:33:25.314Z,96.79
2022-11-20T08:38:28.477Z,97.25
2022-11-20T08:43:31.566Z,97.58
2022-11-20T08:48:34.661Z,97.41
2022-11-20T08:53:37.776Z,95.91
2022-11-20T08:59:09.994Z,94.68
2022-11-20T09:04:06.203Z,93.43
2022-11-20T09:09:09.347Z,92.94
2022-11-20T09:14:12.665Z,94.02
2022-11-20T09:24:39.359Z,96.41
2022-11-20T09:29:43.215Z,96.79
2022-11-20T09:34:46.227Z,88.08
2022-11-20T09:39:50.071Z,87.60
2022-11-20T09:45:11.739Z,89.41
2022-11-20T09:50:25.077Z,89.31
2022-11-20T09:55:32.363Z,86.74
2022-11-20T10:00:38.179Z,87.32
2022-11-20T10:05:47.117Z,87.18
2022-11-20T10:11:19.509Z,76.96
2022-11-20T10:16:44.547Z,75.13
2022-11-20T10:22:00.291Z,75.58
2022-11-20T10:27:41.024Z,73.37
2022-11-20T10:32:49.328Z,75.77
2022-11-20T10:37:59.820Z,73.09
2022-11-20T10:43:09.543Z,70.04
2022-11-20T10:48:16.510Z,73.77
2022-11-20T10:53:54.479Z,75.13
2022-11-20T10:59:24.896Z,75.09
2022-11-20T11:04:34.031Z,74.42
2022-11-20T11:09:45.192Z,71.95
2022-11-20T11:14:58.912Z,72.39
2022-11-20T11:20:24.188Z,70.65
2022-11-20T11:25:30.299Z,70.46
2022-11-20T11:30:44.175Z,69.76
2022-11-20T11:35:51.706Z,67.94
2022-11-20T11:40:56.548Z,68.08
2022-11-20T11:46:00.158Z,68.05
2022-11-20T11:51:03.279Z,68.32
2022-11-20T11:56:15.129Z,70.48
2022-11-20T12:01:42.873Z,68.65
2022-11-20T12:06:52.530Z,66.81
2022-11-20T12:12:10.290Z,64.96
2022-11-20T12:17:15.916Z,64.14
2022-11-20T12:22:42.563Z,64.02
2022-11-20T12:27:57.670Z,62.65
2022-11-20T12:33:35.316Z,60.40
2022-11-20T12:38:38.129Z,63.98
2022-11-20T12:44:22.923Z,54.05
2022-11-20T12:49:44.923Z,54.81
2022-11-20T12:55:12.441Z,56.20
2022-11-20T13:00:23.864Z,57.32
2022-11-20T13:06:05.334Z,56.97
2022-11-20T13:11:27.203Z,56.26
2022-11-20T13:16:55.298Z,58.46
2022-11-20T13:21:58.576Z,63.13
2022-11-20T13:27:10.970Z,64.88
2022-11-20T13:32:21.520Z,68.32
2022-11-20T13:37:34.188Z,69.85
2022-11-20T13:43:00.020Z,71.56
2022-11-20T13:48:06.690Z,73.65
2022-11-20T13:53:18.446Z,70.25
2022-11-20T13:59:04.959Z,70.42
2022-11-20T14:04:10.639Z,71.63
2022-11-20T14:09:25.925Z,73.62
2022-11-20T14:14:31.735Z,74.09
2022-11-20T14:19:35.086Z,73.89
2022-11-20T14:24:38.844Z,71.86
2022-11-20T14:29:44.047Z,71.00
2022-11-20T14:34:50.920Z,73.19
2022-11-20T14:40:00.316Z,73.40
2022-11-20T14:45:04.080Z,75.62
2022-11-20T14:50:19.760Z,75.58
2022-11-20T14:55:35.232Z,75.07
2022-11-20T15:00:38.753Z,75.09
2022-11-20T15:05:50.895Z,75.08
2022-11-20T15:10:55.091Z,75.65
2022-11-20T15:16:01.490Z,74.63
2022-11-20T15:21:10.716Z,75.11
2022-11-20T15:26:20.040Z,76.85
2022-11-20T15:31:25.807Z,78.57
2022-11-20T15:36:29.315Z,77.92
2022-11-20T15:41:32.273Z,79.38
2022-11-20T15:46:41.269Z,79.17
2022-11-20T15:51:50.022Z,79.82
2022-11-20T15:56:55.814Z,78.14
2022-11-20T16:02:00.361Z,77.12
2022-11-20T16:09:33.714Z,76.17
2022-11-20T16:14:56.258Z,75.61
2022-11-20T16:20:00.800Z,74.88
2022-11-20T16:25:05.759Z,74.53
2022-11-20T16:30:10.426Z,74.18
2022-11-20T16:35:14.600Z,74.12
2022-11-20T16:40:18.350Z,73.92
2022-11-20T16:45:27.869Z,74.71
2022-11-20T16:50:34.442Z,74.58
2022-11-20T16:55:38.442Z,75.05
2022-11-20T17:00:48.395Z,74.96
2022-11-20T17:05:54.435Z,75.87
2022-11-20T17:11:06.436Z,77.61
2022-11-20T17:16:12.871Z,79.62
2022-11-20T17:21:17.214Z,80.77
2022-11-20T17:26:23.654Z,81.67
2022-11-20T17:31:28.260Z,82.43
2022-11-20T17:36:32.819Z,82.35
2022-11-20T17:41:35.976Z,83.44
2022-11-20T17:46:40.398Z,83.68
2022-11-20T17:51:43.960Z,85.43
2022-11-20T17:57:06.882Z,86.72
2022-11-20T18:02:14.060Z,88.98
2022-11-20T18:07:18.128Z,88.27
2022-11-20T18:12:21.650Z,85.76
2022-11-20T18:17:26.104Z,87.19
2022-11-20T18:22:29.676Z,87.05
2022-11-20T18:27:33.728Z,88.34
2022-11-20T18:32:38.303Z,89.66
2022-11-20T18:37:42.475Z,84.16
2022-11-20T18:43:05.833Z,79.79
2022-11-20T18:48:09.677Z,82.66
2022-11-20T18:53:12.738Z,81.49
2022-11-20T18:58:16.825Z,82.65
2022-11-20T19:03:20.495Z,84.61
2022-11-20T19:08:24.629Z,85.96
2022-11-20T19:13:31.521Z,87.08
2022-11-20T19:18:34.815Z,87.72
2022-11-20T19:23:39.002Z,87.42
2022-11-20T19:28:42.213Z,87.17
2022-11-20T19:33:46.377Z,88.42
2022-11-20T19:38:50.868Z,89.27
2022-11-20T19:43:54.495Z,90.05
2022-11-20T19:48:58.453Z,90.29
2022-11-20T19:54:02.518Z,85.74
2022-11-20T19:59:06.627Z,77.21
2022-11-20T20:04:09.789Z,80.71
2022-11-20T20:09:14.008Z,83.42
2022-11-20T20:14:18.556Z,83.98
2022-11-20T20:19:22.739Z,84.85
2022-11-20T20:24:26.456Z,86.17
2022-11-20T20:29:29.962Z,87.47
2022-11-20T20:34:33.741Z,88.81
2022-11-20T20:39:37.650Z,86.76
2022-11-20T20:45:01.411Z,84.42
2022-11-20T20:50:06.882Z,84.68
2022-11-20T20:55:11.229Z,85.36
2022-11-20T21:00:16.013Z,87.10
2022-11-20T21:05:19.405Z,88.22
2022-11-20T21:10:23.955Z,89.13
2022-11-20T21:15:27.611Z,90.25
2022-11-20T21:20:49.706Z,90.47
2022-11-20T21:25:52.875Z,90.48
2022-11-20T21:31:08.285Z,89.21
2022-11-20T21:36:13.616Z,90.10
2022-11-20T21:41:18.422Z,91.40
2022-11-20T21:46:21.508Z,91.64
2022-11-20T21:51:27.010Z,92.48
2022-11-20T21:56:30.822Z,93.52
2022-11-20T22:01:34.549Z,93.61
2022-11-20T22:06:38.069Z,94.52
2022-11-20T22:11:41.960Z,94.71
2022-11-20T22:16:45.008Z,95.30
2022-11-20T22:21:48.131Z,94.77
2022-11-20T22:26:51.195Z,95.67
2022-11-20T22:31:54.982Z,96.20
2022-11-20T22:36:58.537Z,96.16
2022-11-20T22:42:02.052Z,96.29
2022-11-20T22:47:11.254Z,96.38
2022-11-20T22:52:15.103Z,97.63
2022-11-20T22:57:18.228Z,95.65
2022-11-20T23:02:21.658Z,90.00
2022-11-20T23:07:25.204Z,79.23
2022-11-20T23:12:28.328Z,73.17
2022-11-20T23:17:31.378Z,72.01
2022-11-20T23:22:34.700Z,68.82
2022-11-20T23:27:38.208Z,66.88
2022-11-20T23:32:41.566Z,66.34
2022-11-20T23:37:44.890Z,65.12
2022-11-20T23:43:07.538Z,66.37
2022-11-20T23:48:11.012Z,66.88
2022-11-20T23:53:15.113Z,76.09
2022-11-20T23:58:19.816Z,78.72
